Time;durP1;ratioP1;P1;durP2;ratioP2;P2;SDS_P1;SDS_P2;PMS_P1;PMS_P2;Temp;Humidity;BMP_temperature;BMP_pressure;BME280_temperature;BME280_humidity;BME280_pressure;Samples;Min_cycle;Max_cycle;Signal;HPM_P1;HPM_P2
2022/07/22 00:04:17;;;;;;;8.65;7.87;;;28.00;47.70;;;;;;4648723;56;21015;-29
2022/07/22 00:09:18;;;;;;;9.23;8.32;;;28.00;47.60;;;;;;4615501;60;21004;-28
2022/07/22 00:14:19;;;;;;;8.48;7.68;;;28.00;47.70;;;;;;4672379;56;21028;-28
2022/07/22 00:19:20;;;;;;;8.00;7.30;;;27.90;47.70;;;;;;4765055;56;21033;-29
2022/07/22 00:24:20;;;;;;;8.52;7.72;;;27.90;47.70;;;;;;4762523;56;21072;-32
2022/07/22 00:29:21;;;;;;;8.88;8.05;;;28.00;47.70;;;;;;4925485;56;21008;-33
2022/07/22 00:34:22;;;;;;;8.52;7.72;;;28.00;47.80;;;;;;4819433;56;21534;-33
2022/07/22 00:39:23;;;;;;;8.88;7.97;;;27.90;47.80;;;;;;4654628;56;21069;-33
2022/07/22 00:44:24;;;;;;;8.05;7.35;;;28.00;47.80;;;;;;4725526;56;21019;-32
2022/07/22 00:49:25;;;;;;;8.35;7.65;;;27.90;47.80;;;;;;4748374;56;21049;-32
2022/07/22 00:54:26;;;;;;;8.25;7.45;;;27.90;47.80;;;;;;4745158;56;21068;-30
2022/07/22 00:59:27;;;;;;;8.07;7.37;;;28.00;47.90;;;;;;4859103;56;21012;-27
2022/07/22 01:04:28;;;;;;;8.00;7.25;;;27.90;47.90;;;;;;4720326;56;21024;-29
2022/07/22 01:09:28;;;;;;;8.23;7.43;;;27.90;47.90;;;;;;4694388;56;21011;-29
2022/07/22 01:14:29;;;;;;;8.05;7.25;;;27.90;47.90;;;;;;4931108;56;21065;-33
2022/07/22 01:19:30;;;;;;;7.45;6.82;;;27.90;48.00;;;;;;5020913;56;21048;-34
2022/07/22 01:24:31;;;;;;;7.53;6.90;;;27.90;48.00;;;;;;4615706;60;21032;-28
2022/07/22 01:29:32;;;;;;;7.93;7.12;;;27.90;48.00;;;;;;4934460;56;21012;-34
2022/07/22 01:34:33;;;;;;;8.48;7.28;;;27.90;48.20;;;;;;4834024;56;21075;-33
2022/07/22 01:39:34;;;;;;;7.47;6.85;;;27.90;48.10;;;;;;4678098;56;21040;-28
2022/07/22 01:44:34;;;;;;;8.15;7.45;;;27.90;48.10;;;;;;4716683;56;21028;-30
2022/07/22 01:49:35;;;;;;;7.87;7.15;;;27.90;48.20;;;;;;4639494;56;21011;-29
2022/07/22 01:54:36;;;;;;;7.82;7.12;;;27.90;48.30;;;;;;4615211;60;21625;-29
2022/07/22 01:59:37;;;;;;;7.75;6.90;;;27.90;48.20;;;;;;4690353;56;21013;-29
2022/07/22 02:04:38;;;;;;;8.20;7.40;;;27.90;48.30;;;;;;4643287;56;21471;-31
2022/07/22 02:09:38;;;;;;;7.45;6.78;;;27.90;48.30;;;;;;4657363;56;21495;-31
2022/07/22 02:14:39;;;;;;;7.50;6.80;;;27.90;48.30;;;;;;4865145;56;21080;-30
2022/07/22 02:19:40;;;;;;;7.35;6.72;;;27.90;48.30;;;;;;4731568;56;21040;-28
2022/07/22 02:24:41;;;;;;;8.05;6.55;;;27.90;48.50;;;;;;4652818;56;21041;-28
2022/07/22 02:29:42;;;;;;;7.25;6.65;;;27.90;48.40;;;;;;4835140;56;21063;-32
2022/07/22 02:34:43;;;;;;;7.12;6.43;;;27.90;48.50;;;;;;4615362;60;21045;-32
2022/07/22 02:39:44;;;;;;;6.95;6.35;;;27.90;48.60;;;;;;4710451;56;21083;-30
2022/07/22 02:44:44;;;;;;;6.80;6.20;;;27.90;48.40;;;;;;4876958;56;21092;-30
2022/07/22 02:49:45;;;;;;;7.20;6.60;;;27.90;48.40;;;;;;4615226;60;21020;-33
2022/07/22 02:54:46;;;;;;;7.37;6.68;;;27.90;48.50;;;;;;4771257;56;21603;-29
2022/07/22 02:59:47;;;;;;;7.15;6.55;;;27.90;48.40;;;;;;4681979;56;21021;-29
2022/07/22 03:04:48;;;;;;;7.30;6.60;;;27.90;48.40;;;;;;4755534;56;21024;-33
2022/07/22 03:09:49;;;;;;;6.90;6.22;;;27.90;48.20;;;;;;5071182;56;21593;-28
2022/07/22 03:14:50;;;;;;;7.95;6.90;;;27.90;48.30;;;;;;4874438;56;21143;-31
2022/07/22 03:19:51;;;;;;;7.43;6.62;;;27.90;48.20;;;;;;4745001;56;21049;-31
2022/07/22 03:24:52;;;;;;;6.72;6.03;;;27.90;48.20;;;;;;4615519;60;21036;-34
2022/07/22 03:29:53;;;;;;;6.80;6.15;;;27.90;48.20;;;;;;4907810;56;21008;-34
2022/07/22 03:34:53;;;;;;;7.03;6.32;;;27.90;48.20;;;;;;4634167;56;21036;-31
2022/07/22 03:39:54;;;;;;;6.47;5.87;;;27.90;48.20;;;;;;4818662;56;21083;-28
2022/07/22 03:44:55;;;;;;;6.85;6.18;;;27.90;48.20;;;;;;4769696;56;21072;-31
2022/07/22 03:49:58;;;;;;;6.30;5.70;;;27.90;48.10;;;;;;4631230;56;21075;-30
2022/07/22 03:54:58;;;;;;;6.43;5.90;;;27.90;48.20;;;;;;4748070;56;21638;-29
2022/07/22 03:59:59;;;;;;;6.25;5.65;;;27.90;48.10;;;;;;4887529;56;21012;-31
2022/07/22 04:05:00;;;;;;;6.82;6.12;;;27.80;48.10;;;;;;4716096;56;21012;-28
2022/07/22 04:10:07;;;;;;;6.22;5.72;;;27.80;48.00;;;;;;4726749;56;21067;-35
2022/07/22 04:15:09;;;;;;;6.93;6.22;;;27.80;48.00;;;;;;4614864;58;21049;-28
2022/07/22 04:20:10;;;;;;;6.53;5.87;;;27.80;48.00;;;;;;4686196;56;21095;-29
2022/07/22 04:25:11;;;;;;;6.20;5.60;;;27.80;48.00;;;;;;4697726;56;21024;-29
2022/07/22 04:30:12;;;;;;;6.30;5.70;;;27.80;48.00;;;;;;4822998;56;21024;-30
2022/07/22 04:35:13;;;;;;;6.20;5.62;;;27.80;48.10;;;;;;4650779;56;21511;-29
2022/07/22 04:40:14;;;;;;;8.55;6.05;;;27.80;47.90;;;;;;4725731;56;21483;-30
2022/07/22 04:45:15;;;;;;;5.57;5.05;;;27.80;47.90;;;;;;4727257;56;21024;-28
2022/07/22 04:50:15;;;;;;;6.68;5.93;;;27.80;47.90;;;;;;4848923;56;21016;-29
2022/07/22 04:55:16;;;;;;;6.18;5.57;;;27.80;47.90;;;;;;4680283;56;21088;-28
2022/07/22 05:00:17;;;;;;;5.82;5.30;;;27.80;48.00;;;;;;4634336;56;21028;-31
2022/07/22 05:05:18;;;;;;;6.72;5.47;;;27.80;47.90;;;;;;4734571;56;21013;-29
2022/07/22 05:10:19;;;;;;;6.37;5.80;;;27.80;47.90;;;;;;4673248;56;21017;-29
2022/07/22 05:15:19;;;;;;;6.03;5.20;;;27.80;47.90;;;;;;4686055;56;21136;-30
2022/07/22 05:20:20;;;;;;;6.22;5.62;;;27.80;48.10;;;;;;4684681;56;21041;-29
2022/07/22 05:25:21;;;;;;;6.03;5.43;;;27.80;47.80;;;;;;4653002;56;21017;-30
2022/07/22 05:30:22;;;;;;;5.78;5.18;;;27.80;47.90;;;;;;4618754;56;21016;-33
2022/07/22 05:35:23;;;;;;;6.65;5.37;;;27.80;48.00;;;;;;4614978;60;21024;-30
2022/07/22 05:40:24;;;;;;;7.57;6.10;;;27.70;47.80;;;;;;4615160;60;21020;-29
2022/07/22 05:45:24;;;;;;;6.40;5.62;;;27.80;47.80;;;;;;4614994;60;21088;-29
2022/07/22 05:50:25;;;;;;;6.22;5.60;;;27.80;47.80;;;;;;4677168;56;21009;-29
2022/07/22 05:55:26;;;;;;;6.20;5.60;;;27.80;47.90;;;;;;4645010;56;21032;-29
2022/07/22 06:00:27;;;;;;;6.45;5.50;;;27.80;47.80;;;;;;4725771;56;21048;-30
2022/07/22 06:05:28;;;;;;;7.40;5.97;;;27.80;47.90;;;;;;4615289;60;21535;-30
2022/07/22 06:10:29;;;;;;;8.35;6.40;;;27.80;47.80;;;;;;4637328;56;21061;-29
2022/07/22 06:15:30;;;;;;;8.63;6.15;;;27.80;48.40;;;;;;4634499;56;21027;-30
2022/07/22 06:20:30;;;;;;;8.38;6.10;;;27.80;47.80;;;;;;4699261;56;21048;-30
2022/07/22 06:25:32;;;;;;;6.95;6.25;;;27.80;47.80;;;;;;4629055;56;21618;-29
2022/07/22 06:30:32;;;;;;;9.15;5.87;;;27.80;47.80;;;;;;4666333;56;21542;-29
2022/07/22 06:35:33;;;;;;;7.32;6.10;;;27.80;47.80;;;;;;4649953;56;21016;-30
2022/07/22 06:40:34;;;;;;;31.17;13.55;;;27.70;47.70;;;;;;4701063;56;21077;-31
2022/07/22 06:45:35;;;;;;;38.20;16.70;;;27.80;47.50;;;;;;4859753;56;21570;-27
2022/07/22 06:50:36;;;;;;;41.20;17.37;;;27.80;47.00;;;;;;4654218;56;21518;-31
2022/07/22 06:55:37;;;;;;;33.42;16.50;;;27.80;46.80;;;;;;4888025;56;21072;-27
2022/07/22 07:00:38;;;;;;;34.53;15.70;;;27.80;46.90;;;;;;4702444;56;21515;-27
2022/07/22 07:05:39;;;;;;;29.48;15.70;;;27.80;46.90;;;;;;4771212;56;21029;-33
2022/07/22 07:10:40;;;;;;;32.92;16.45;;;27.80;47.00;;;;;;4808591;56;21008;-32
2022/07/22 07:15:41;;;;;;;33.30;17.85;;;27.80;46.90;;;;;;4615369;60;21027;-28
2022/07/22 07:20:42;;;;;;;29.60;17.25;;;27.90;46.90;;;;;;4614894;60;21040;-26
2022/07/22 07:25:42;;;;;;;32.20;17.30;;;27.90;46.90;;;;;;4742951;56;21025;-27
2022/07/22 07:30:43;;;;;;;27.55;16.50;;;27.90;47.00;;;;;;4674071;56;21003;-28
2022/07/22 07:35:45;;;;;;;28.70;17.55;;;28.00;47.20;;;;;;4615236;60;21036;-30
2022/07/22 07:40:46;;;;;;;37.20;24.08;;;28.00;47.20;;;;;;4706648;56;21052;-31
2022/07/22 07:45:46;;;;;;;44.00;27.98;;;28.00;47.10;;;;;;4664166;56;21100;-29
2022/07/22 07:50:47;;;;;;;46.00;31.70;;;28.10;47.20;;;;;;4615719;56;21088;-27
2022/07/22 07:55:49;;;;;;;45.60;33.72;;;28.10;47.20;;;;;;4614766;60;21024;-28
2022/07/22 08:00:49;;;;;;;55.55;39.28;;;28.10;47.30;;;;;;4644064;56;21160;-28
2022/07/22 08:05:50;;;;;;;55.97;37.35;;;28.10;47.00;;;;;;4653342;56;21064;-31
2022/07/22 08:10:51;;;;;;;47.83;35.45;;;28.20;46.90;;;;;;4615195;60;21509;-28
2022/07/22 08:15:52;;;;;;;49.08;33.85;;;28.20;47.40;;;;;;4635952;56;21448;-28
2022/07/22 08:20:55;;;;;;;46.05;34.67;;;28.20;47.40;;;;;;4614663;60;21630;-31
2022/07/22 08:25:56;;;;;;;46.63;33.45;;;28.20;47.80;;;;;;4630740;56;21137;-31
2022/07/22 08:30:57;;;;;;;45.45;33.50;;;28.30;47.90;;;;;;4677594;56;21467;-31
2022/07/22 08:35:58;;;;;;;42.33;31.37;;;28.20;48.00;;;;;;4619872;56;21064;-28
2022/07/22 08:41:01;;;;;;;44.78;31.25;;;28.30;47.90;;;;;;4702490;56;21491;-33
2022/07/22 08:46:02;;;;;;;38.72;30.35;;;28.20;47.80;;;;;;4626352;56;21063;-29
2022/07/22 08:51:03;;;;;;;42.90;30.10;;;28.30;47.80;;;;;;4741858;56;21024;-32
2022/07/22 08:56:05;;;;;;;36.63;29.10;;;28.20;47.60;;;;;;4614752;60;21515;-30
2022/07/22 09:01:24;;;;;;;38.92;29.80;;;28.30;47.60;;;;;;4695323;56;21128;-29
2022/07/22 09:06:32;;;;;;;36.13;28.00;;;28.30;47.50;;;;;;4650451;56;21479;-27
2022/07/22 09:11:33;;;;;;;36.15;25.95;;;28.30;47.40;;;;;;4634434;56;21478;-29
2022/07/22 09:16:48;;;;;;;40.35;26.52;;;28.30;46.30;;;;;;4614710;60;21033;-28
2022/07/22 09:21:50;;;;;;;38.72;29.65;;;28.40;45.30;;;;;;4614808;60;21121;-29
2022/07/22 09:26:55;;;;;;;35.40;29.17;;;28.50;45.00;;;;;;4683403;56;21064;-30
2022/07/22 09:31:57;;;;;;;47.40;33.40;;;28.60;44.70;;;;;;4718395;56;21021;-27
2022/07/22 09:36:59;;;;;;;59.42;42.78;;;28.70;44.40;;;;;;4718831;56;21694;-28
2022/07/22 09:42:03;;;;;;;62.80;44.75;;;28.70;44.10;;;;;;4768062;56;21029;-29
2022/07/22 09:47:04;;;;;;;54.03;39.63;;;28.80;44.00;;;;;;4664487;56;21064;-30
2022/07/22 09:52:05;;;;;;;54.45;37.78;;;28.90;43.60;;;;;;4791122;56;21012;-30
2022/07/22 09:57:06;;;;;;;51.47;38.28;;;28.80;43.70;;;;;;4755886;56;21076;-33
2022/07/22 10:02:10;;;;;;;50.75;38.25;;;28.70;44.10;;;;;;4845611;56;21048;-29
2022/07/22 10:07:11;;;;;;;55.08;38.13;;;28.60;44.40;;;;;;4615127;60;21009;-29
2022/07/22 10:12:13;;;;;;;46.03;35.08;;;28.50;44.60;;;;;;4615456;57;21012;-30
2022/07/22 10:17:14;;;;;;;47.83;35.67;;;28.50;44.80;;;;;;4650049;56;21092;-30
2022/07/22 10:22:54;;;;;;;47.28;36.20;;;28.50;44.90;;;;;;4614374;57;21105;-29
2022/07/22 10:28:03;;;;;;;46.60;35.78;;;28.40;45.10;;;;;;4672830;56;20997;-32
2022/07/22 10:33:28;;;;;;;45.63;34.17;;;28.40;45.20;;;;;;4678646;56;21016;-29
2022/07/22 10:38:31;;;;;;;43.60;34.17;;;28.40;45.40;;;;;;4614905;56;21068;-31
2022/07/22 10:43:46;;;;;;;43.35;34.45;;;28.40;45.40;;;;;;4682683;56;21023;-30
2022/07/22 10:48:48;;;;;;;40.88;33.13;;;28.40;45.60;;;;;;4627155;56;21020;-29
2022/07/22 10:54:02;;;;;;;45.08;33.97;;;28.30;45.60;;;;;;4641418;56;21466;-32
2022/07/22 10:59:36;;;;;;;42.42;33.25;;;28.30;45.70;;;;;;4614262;56;21521;-30
2022/07/22 11:04:37;;;;;;;41.20;31.65;;;28.30;45.80;;;;;;4631342;56;21113;-30
2022/07/22 11:09:38;;;;;;;40.00;31.48;;;28.30;45.80;;;;;;4733086;56;21068;-29
2022/07/22 11:14:39;;;;;;;41.13;32.45;;;28.30;45.90;;;;;;4615026;56;21475;-30
2022/07/22 11:19:40;;;;;;;38.10;31.15;;;28.30;46.00;;;;;;4787153;56;21076;-31
2022/07/22 11:24:41;;;;;;;38.50;30.95;;;28.30;46.00;;;;;;4637448;56;21478;-31
2022/07/22 11:29:45;;;;;;;38.55;30.80;;;28.30;46.10;;;;;;4940955;56;21092;-28
2022/07/22 11:34:47;;;;;;;36.58;30.55;;;28.20;46.10;;;;;;4980515;56;21538;-31
2022/07/22 11:39:48;;;;;;;36.40;29.73;;;28.30;46.20;;;;;;4947682;56;21080;-32
2022/07/22 11:44:48;;;;;;;35.47;29.25;;;28.20;46.10;;;;;;4615086;60;21012;-28
2022/07/22 11:49:49;;;;;;;35.20;29.35;;;28.30;46.20;;;;;;4717000;56;21027;-30
2022/07/22 11:54:50;;;;;;;36.30;29.12;;;28.20;46.20;;;;;;4761640;56;21041;-29
2022/07/22 11:59:51;;;;;;;34.55;29.02;;;28.20;46.30;;;;;;4652995;56;21543;-30
2022/07/22 12:04:52;;;;;;;34.88;28.75;;;28.20;46.30;;;;;;4963885;56;21514;-31
2022/07/22 12:09:53;;;;;;;33.88;28.38;;;28.30;46.40;;;;;;4665828;56;21088;-31
2022/07/22 12:14:57;;;;;;;33.88;27.70;;;28.30;46.40;;;;;;4740434;56;21104;-28
2022/07/22 12:20:10;;;;;;;34.00;27.13;;;28.20;46.30;;;;;;4617070;56;21164;-33
2022/07/22 12:25:11;;;;;;;36.22;27.90;;;28.30;46.40;;;;;;4762156;56;21447;-30
2022/07/22 12:30:13;;;;;;;30.27;25.80;;;28.20;46.30;;;;;;4615286;60;21016;-34
2022/07/22 12:35:15;;;;;;;31.95;26.98;;;28.20;46.30;;;;;;4671601;56;21024;-30
2022/07/22 12:40:22;;;;;;;32.03;26.55;;;28.30;46.40;;;;;;4625953;56;21076;-29
2022/07/22 12:45:23;;;;;;;32.38;27.02;;;28.30;46.40;;;;;;4737751;56;21084;-30
2022/07/22 12:50:40;;;;;;;28.50;25.37;;;28.30;46.40;;;;;;4648708;56;21535;-27
2022/07/22 12:55:55;;;;;;;31.45;26.25;;;28.20;46.40;;;;;;4682949;56;21024;-31
2022/07/22 13:00:58;;;;;;;29.23;24.92;;;28.30;46.40;;;;;;4724924;56;21777;-29
2022/07/22 13:06:02;;;;;;;29.55;25.73;;;28.30;47.10;;;;;;4702409;56;21073;-29
2022/07/22 13:11:03;;;;;;;33.08;26.62;;;28.30;46.40;;;;;;4615229;60;21522;-30
2022/07/22 13:16:04;;;;;;;28.77;25.15;;;28.30;46.40;;;;;;4648411;56;21049;-33
2022/07/22 13:21:05;;;;;;;26.67;23.70;;;28.30;46.50;;;;;;4906219;56;21105;-30
2022/07/22 13:26:06;;;;;;;29.60;23.60;;;28.30;46.50;;;;;;4691350;56;20993;-28
2022/07/22 13:31:08;;;;;;;26.95;23.77;;;28.30;46.50;;;;;;4720226;56;21056;-27
2022/07/22 13:36:09;;;;;;;25.42;22.67;;;28.30;46.50;;;;;;4614950;56;21024;-29
2022/07/22 13:41:16;;;;;;;28.08;22.90;;;28.30;46.80;;;;;;4838459;56;21045;-32
2022/07/22 13:46:18;;;;;;;27.52;23.77;;;28.30;46.50;;;;;;4760888;56;21630;-29
2022/07/22 13:51:19;;;;;;;27.65;22.98;;;28.30;46.50;;;;;;4614939;60;21018;-28
2022/07/22 13:56:20;;;;;;;26.10;22.48;;;28.30;46.50;;;;;;4614874;60;21029;-35
2022/07/22 14:01:21;;;;;;;26.70;23.33;;;28.30;46.40;;;;;;4614901;60;21111;-31
2022/07/22 14:06:22;;;;;;;25.00;22.30;;;28.30;46.50;;;;;;4625054;56;21539;-29
2022/07/22 14:11:23;;;;;;;26.48;22.90;;;28.30;46.60;;;;;;4614857;56;21020;-29
2022/07/22 14:16:36;;;;;;;26.25;23.08;;;28.30;46.50;;;;;;4678251;56;21134;-34
2022/07/22 14:21:38;;;;;;;26.58;21.85;;;28.30;46.50;;;;;;4674214;56;21550;-31
2022/07/22 14:26:40;;;;;;;24.95;21.83;;;28.30;46.50;;;;;;4673629;56;21009;-30
2022/07/22 14:31:41;;;;;;;24.37;21.87;;;28.30;46.40;;;;;;5073194;56;21462;-30
2022/07/22 14:36:41;;;;;;;25.02;21.05;;;28.40;46.60;;;;;;4782548;56;21020;-41
2022/07/22 14:41:45;;;;;;;23.95;20.77;;;28.30;46.50;;;;;;4615885;56;21025;-30
2022/07/22 14:46:46;;;;;;;23.92;21.20;;;28.30;46.50;;;;;;4615136;60;21490;-29
2022/07/22 14:51:47;;;;;;;23.87;21.27;;;28.40;46.50;;;;;;4674194;56;21016;-33
2022/07/22 14:56:48;;;;;;;23.02;20.52;;;28.30;46.40;;;;;;4718402;56;21486;-31
2022/07/22 15:01:49;;;;;;;22.50;19.58;;;28.30;46.40;;;;;;4623547;56;21009;-29
2022/07/22 15:06:49;;;;;;;24.17;19.95;;;28.30;46.40;;;;;;4615052;60;21059;-30
2022/07/22 15:11:52;;;;;;;22.42;18.73;;;28.40;46.40;;;;;;4669423;56;21527;-34
2022/07/22 15:16:53;;;;;;;22.30;19.90;;;28.30;46.40;;;;;;4614977;60;21590;-32
2022/07/22 15:21:54;;;;;;;22.27;19.85;;;28.40;46.50;;;;;;4614864;60;21025;-33
2022/07/22 15:26:55;;;;;;;21.17;18.15;;;28.40;46.40;;;;;;4615412;60;21016;-29
2022/07/22 15:31:56;;;;;;;22.55;19.60;;;28.40;46.40;;;;;;4628727;56;21068;-29
2022/07/22 15:36:57;;;;;;;21.40;18.77;;;28.40;46.40;;;;;;4615711;56;21567;-32
2022/07/22 15:41:58;;;;;;;19.95;17.77;;;28.40;46.50;;;;;;4622971;56;21072;-31
2022/07/22 15:46:58;;;;;;;20.45;18.00;;;28.40;46.40;;;;;;4656722;56;21020;-32
2022/07/22 15:52:00;;;;;;;20.83;18.62;;;28.40;46.70;;;;;;4616949;56;21084;-32
2022/07/22 16:02:20;;;;;;;21.00;18.80;;;28.40;46.30;;;;;;4615068;56;21075;-33
2022/07/22 16:07:21;;;;;;;20.17;17.95;;;28.40;46.30;;;;;;4637063;56;21511;-31
2022/07/22 16:12:22;;;;;;;20.70;18.15;;;28.40;46.30;;;;;;4835759;56;21012;-29
2022/07/22 16:17:23;;;;;;;20.62;18.48;;;28.40;46.30;;;;;;4894031;56;21510;-28
2022/07/22 16:22:24;;;;;;;19.45;17.35;;;28.40;46.30;;;;;;4667444;56;21085;-31
2022/07/22 16:27:25;;;;;;;19.85;17.75;;;28.40;46.30;;;;;;4754289;56;21012;-30
2022/07/22 16:32:25;;;;;;;19.58;17.48;;;28.40;46.30;;;;;;4730571;56;21036;-29
2022/07/22 16:37:26;;;;;;;19.52;17.05;;;28.40;46.30;;;;;;4674656;56;21015;-31
2022/07/22 16:42:27;;;;;;;18.95;16.95;;;28.40;46.30;;;;;;4617723;56;21466;-33
2022/07/22 16:47:29;;;;;;;20.52;17.05;;;28.50;46.30;;;;;;4917386;56;21008;-29
2022/07/22 16:52:30;;;;;;;19.75;17.33;;;28.40;46.30;;;;;;4842035;56;21479;-30
2022/07/22 16:57:30;;;;;;;18.37;16.40;;;28.40;46.30;;;;;;4786917;56;21012;-30
2022/07/22 17:02:31;;;;;;;18.67;16.55;;;28.40;46.30;;;;;;4744271;56;21490;-30
2022/07/22 17:07:32;;;;;;;17.95;15.50;;;28.40;46.30;;;;;;4615079;60;21012;-25
2022/07/22 17:12:33;;;;;;;18.65;16.75;;;28.40;46.30;;;;;;4797091;56;21005;-33
2022/07/22 17:17:34;;;;;;;18.40;16.35;;;28.40;46.30;;;;;;4678358;56;21092;-30
2022/07/22 17:22:37;;;;;;;18.45;16.52;;;28.40;46.30;;;;;;4814908;56;21052;-32
2022/07/22 17:27:38;;;;;;;18.62;16.62;;;28.40;46.40;;;;;;4615244;60;21459;-30
2022/07/22 17:32:38;;;;;;;18.45;16.55;;;28.40;46.40;;;;;;4626350;56;21025;-35
2022/07/22 17:37:39;;;;;;;18.45;16.55;;;28.40;46.40;;;;;;4685569;56;21037;-33
2022/07/22 17:42:41;;;;;;;18.08;16.27;;;28.50;46.50;;;;;;4715330;56;21024;-31
2022/07/22 17:47:42;;;;;;;18.65;16.75;;;28.50;46.50;;;;;;4615413;60;21555;-29
2022/07/22 17:52:43;;;;;;;17.12;15.35;;;28.50;46.50;;;;;;4719719;56;21080;-30
2022/07/22 17:57:44;;;;;;;17.20;15.40;;;28.50;46.50;;;;;;4716324;56;21508;-29
2022/07/22 18:02:45;;;;;;;17.02;15.20;;;28.50;46.60;;;;;;4631419;56;21499;-31
2022/07/22 18:07:46;;;;;;;17.65;15.93;;;28.50;46.60;;;;;;4813448;56;21583;-32
2022/07/22 18:12:47;;;;;;;16.45;14.73;;;28.50;46.60;;;;;;4874337;56;21024;-29
2022/07/22 18:17:48;;;;;;;18.17;16.27;;;28.50;46.60;;;;;;4614496;60;21553;-30
2022/07/22 18:22:49;;;;;;;16.95;15.25;;;28.50;46.60;;;;;;4659137;56;21048;-35
2022/07/22 18:27:50;;;;;;;17.35;15.55;;;28.50;46.60;;;;;;4615943;56;21016;-28
2022/07/22 18:32:51;;;;;;;17.48;15.68;;;28.50;46.60;;;;;;4696071;56;21475;-30
2022/07/22 18:37:51;;;;;;;16.55;14.95;;;28.50;46.70;;;;;;4817426;56;21033;-32
2022/07/22 18:42:52;;;;;;;17.25;15.52;;;28.50;46.70;;;;;;4649207;56;21025;-30
2022/07/22 18:47:53;;;;;;;16.73;15.02;;;28.50;46.70;;;;;;4729524;56;21021;-31
2022/07/22 18:52:54;;;;;;;16.80;15.10;;;28.50;46.80;;;;;;4701539;56;21031;-30
2022/07/22 18:57:55;;;;;;;16.65;14.87;;;28.50;46.80;;;;;;4668024;56;21184;-33
2022/07/22 19:02:56;;;;;;;17.00;15.20;;;28.50;46.80;;;;;;4614757;60;21104;-31
2022/07/22 19:07:57;;;;;;;17.42;15.63;;;28.50;46.80;;;;;;4704758;56;21077;-32
2022/07/22 19:12:57;;;;;;;16.98;15.27;;;28.50;46.90;;;;;;4755591;56;21085;-28
2022/07/22 19:17:58;;;;;;;16.95;15.15;;;28.50;46.90;;;;;;4747108;56;21036;-29
2022/07/22 19:22:59;;;;;;;17.50;15.68;;;28.50;46.90;;;;;;4699920;56;21634;-32
2022/07/22 19:28:00;;;;;;;17.05;15.25;;;28.50;46.90;;;;;;4706240;56;21005;-31
2022/07/22 19:33:01;;;;;;;17.02;15.23;;;28.50;47.00;;;;;;4774504;56;21024;-30
2022/07/22 19:38:02;;;;;;;16.55;14.85;;;28.50;47.00;;;;;;4614176;56;21033;-33
2022/07/22 19:43:03;;;;;;;16.55;14.95;;;28.50;47.00;;;;;;4613495;60;21503;-36
2022/07/22 19:48:04;;;;;;;16.42;14.65;;;28.50;47.10;;;;;;4724849;56;21065;-31
2022/07/22 19:53:04;;;;;;;16.48;14.77;;;28.50;46.70;;;;;;4794344;56;21032;-32
2022/07/22 19:58:05;;;;;;;16.37;14.60;;;28.50;47.10;;;;;;4752096;56;21187;-31
2022/07/22 20:03:06;;;;;;;16.85;15.10;;;28.50;47.10;;;;;;4614937;60;21056;-29
2022/07/22 20:08:07;;;;;;;16.48;13.88;;;28.50;47.10;;;;;;4765940;56;21056;-31
2022/07/22 20:13:07;;;;;;;15.75;14.25;;;28.50;47.10;;;;;;4614933;60;21051;-29
2022/07/22 20:18:08;;;;;;;15.98;14.38;;;28.50;47.10;;;;;;4655638;56;21517;-31
2022/07/22 20:23:10;;;;;;;15.35;13.85;;;28.50;47.30;;;;;;4614445;60;21146;-33
2022/07/22 20:28:15;;;;;;;15.77;14.18;;;28.50;47.20;;;;;;4698166;56;21021;-32
2022/07/22 20:33:16;;;;;;;15.80;14.30;;;28.50;47.30;;;;;;4722203;56;21550;-32
2022/07/22 20:38:17;;;;;;;16.25;14.45;;;28.50;47.30;;;;;;4765142;56;21506;-30
2022/07/22 20:43:18;;;;;;;16.80;15.02;;;28.50;47.30;;;;;;4615009;57;21032;-38
2022/07/22 20:48:19;;;;;;;15.98;14.27;;;28.50;47.30;;;;;;4753185;56;21036;-32
2022/07/22 20:53:20;;;;;;;15.32;13.80;;;28.50;47.30;;;;;;4615226;60;21072;-31
2022/07/22 20:58:20;;;;;;;16.50;14.90;;;28.40;47.30;;;;;;4649344;56;21559;-30
2022/07/22 21:03:21;;;;;;;15.55;13.95;;;28.50;47.50;;;;;;4729310;56;21566;-33
2022/07/22 21:08:22;;;;;;;16.65;15.02;;;28.50;47.50;;;;;;4614907;60;21012;-29
2022/07/22 21:13:23;;;;;;;15.40;13.50;;;28.50;47.50;;;;;;4679973;56;21028;-31
2022/07/22 21:18:24;;;;;;;16.05;13.57;;;28.50;47.60;;;;;;4628646;56;21126;-30
2022/07/22 21:23:25;;;;;;;16.12;14.27;;;28.50;47.60;;;;;;4662214;56;21032;-33
2022/07/22 21:28:26;;;;;;;16.12;13.77;;;28.40;47.50;;;;;;4716210;56;21459;-33
2022/07/22 21:33:29;;;;;;;15.55;13.95;;;28.40;47.50;;;;;;4918210;56;21052;-33
2022/07/22 21:38:29;;;;;;;15.90;14.27;;;28.40;48.30;;;;;;4776457;56;21480;-31
2022/07/22 21:43:31;;;;;;;15.38;13.90;;;28.50;47.80;;;;;;4745375;56;21012;-33
2022/07/22 21:48:32;;;;;;;15.18;13.65;;;28.40;47.60;;;;;;4741253;56;21041;-30
2022/07/22 21:53:33;;;;;;;15.13;13.62;;;28.40;47.80;;;;;;4655734;56;21004;-29
2022/07/22 21:58:33;;;;;;;15.20;13.60;;;28.50;48.00;;;;;;4614586;60;21036;-33
2022/07/22 22:03:34;;;;;;;14.95;13.38;;;28.40;47.90;;;;;;4724249;56;21563;-35
2022/07/22 22:08:35;;;;;;;14.35;12.85;;;28.40;47.90;;;;;;4813066;56;21530;-34
2022/07/22 22:13:36;;;;;;;15.50;13.88;;;28.40;48.00;;;;;;4751956;56;21530;-33
2022/07/22 22:18:37;;;;;;;15.23;13.65;;;28.50;48.10;;;;;;4658326;56;21021;-31
2022/07/22 22:23:37;;;;;;;14.00;12.55;;;28.50;48.10;;;;;;4749800;56;21498;-29
2022/07/22 22:28:38;;;;;;;14.68;13.20;;;28.50;48.10;;;;;;4702392;56;21049;-29
2022/07/22 22:33:39;;;;;;;14.87;13.27;;;28.40;48.20;;;;;;5073039;56;21087;-28
2022/07/22 22:38:40;;;;;;;15.23;13.62;;;28.40;48.20;;;;;;4754731;56;21025;-36
2022/07/22 22:43:41;;;;;;;13.82;12.43;;;28.50;48.30;;;;;;4835340;56;21124;-28
2022/07/22 22:48:41;;;;;;;14.70;13.20;;;28.40;48.20;;;;;;4957273;56;21495;-30
2022/07/22 22:53:42;;;;;;;14.43;12.98;;;28.50;49.00;;;;;;4663998;56;21023;-32
2022/07/22 22:58:43;;;;;;;14.30;12.73;;;28.40;48.30;;;;;;4779730;56;21081;-31
2022/07/22 23:03:44;;;;;;;15.10;13.45;;;28.40;48.30;;;;;;4617765;56;21494;-29
2022/07/22 23:08:44;;;;;;;14.73;13.23;;;28.50;48.40;;;;;;4722842;56;21072;-29
2022/07/22 23:13:45;;;;;;;14.05;12.65;;;28.40;48.30;;;;;;4873789;56;21044;-26
2022/07/22 23:18:46;;;;;;;13.95;12.55;;;28.40;48.40;;;;;;4614387;60;21041;-30
2022/07/22 23:23:47;;;;;;;14.02;12.63;;;28.40;48.40;;;;;;4648121;56;21056;-31
2022/07/22 23:28:48;;;;;;;14.15;12.75;;;28.40;48.40;;;;;;4886552;56;21558;-30
2022/07/22 23:33:49;;;;;;;13.93;12.52;;;28.50;48.60;;;;;;4615378;60;21483;-33
2022/07/22 23:38:50;;;;;;;14.02;12.65;;;28.40;48.60;;;;;;4761473;56;21072;-29
2022/07/22 23:43:50;;;;;;;13.05;11.57;;;28.40;49.20;;;;;;4636503;56;21025;-33
2022/07/22 23:48:51;;;;;;;12.98;11.68;;;28.50;48.70;;;;;;4774874;56;21031;-31
2022/07/22 23:53:52;;;;;;;13.50;12.10;;;28.40;48.50;;;;;;4712426;56;21024;-30
2022/07/22 23:58:53;;;;;;;13.68;12.27;;;28.50;48.80;;;;;;4832779;56;21028;-31
